Terminal Aerodrome Forecast
Issued by NWS

Home | Current Version | Previous Version | Text Only | Print | Product List | Glossary On
Versions: 1 2 3 4 5 6 7 8 9 10 11 12
000
FTUS42 TJSJ 280529
TAFJMZ
TAF
TJMZ 280529Z 2806/2906 07005KT P6SM FEW030 BKN060
     FM281200 VRB06KT P6SM SCT030 BKN080
     FM281800 26010KT P6SM VCTS SCT030CB BKN040
     FM282330 07005KT P6SM FEW030 BKN080
      AMD NOT SKED TIL 281500=

USA.gov is the U.S. government's official web portal to all federal, state and local government web resources and services.